Detall de PIREP

Printer-friendly versionPDF version

[2013/01/30 10:30:00]
Flight IATA:CT2211
Pilot Number:042
Company ICAO:CAT
Aircraft Type:C750/F
PAX:2
Departing Airport: LFPG
Destination Airport: LFMP
Alternate Airport:LFBO
Online: VATSIM
Route:ERIXU UN860 ETAMO UN855 VALKU UN855 OLRAK UZ131 BADAM UY27 NEKTA UY27 SIJAN
Flight Level:F330
No Slew and time accel
No pause
Crash detect
Detect pilot in Cockpit between each 30 and 45 minutes
10:30 Zero fuel Weight: 22921 Lbs, Fuel Weight: 12934 Lbs
10:30 VATSIM:LFPG 301000Z 22014KT 2000 RA BKN006 12/11 Q1011 NOSIG
10:30 VATSIM:LFMP 301000Z VRB03KT CAVOK 13/04 Q1025 NOSIG
10:30 VOICE CATALONIAN
10:36 Parking Brakes off
10:47 Take-off
10:47 Take off Weight: 35691 Lbs
10:47 Wind: 173º @ 005 Knots Heading: 261º
10:47 POS N49º 01´ 17´´ E002º 32´ 08´´
10:47 Gear Up: 155 Knots
10:47 Flaps:4 at 155 Knots
10:48 Flaps:3 at 215 Knots
10:48 Flaps:2 at 226 Knots
10:50 Flaps:0 at 194 Knots
11:01 TOC
11:01 Fuel Weight: 12106 Lb
11:02 Wind:327º@075 Knots Heading: 181º Ground Speed: 582 Knots Altitude 33090 ft
11:17 Wind:323º@074 Knots Heading: 184º Ground Speed: 562 Knots Altitude 33267 ft
11:27 TOD
11:27 Fuel Weight: 11329 Lb
11:27 TOC
11:27 Fuel Weight: 11327 Lb
11:27 TOD
11:27 Fuel Weight: 11326 Lb
11:32 Wind:325º@039 Knots Heading: 190º Ground Speed: 363 Knots Altitude 14609 ft
11:41 Flaps:2 at 190 Knots
11:42 Flaps:3 at 180 Knots
11:44 Flaps:4 at 178 Knots
11:47 Wind:002º@002 Knots Heading: 278º Ground Speed: 146 Knots Altitude 2998 ft
11:49 Gear Down: 147 Knots
11:49 Flaps:5 at 147 Knots
11:52 TouchDown:Rate -219 ft/min Speed: 108 Knots
11:53 VATSIM:LFMP 301130Z VRB01KT CAVOK 15/04 Q1024 NOSIG
11:53 Land
11:53 Wind:002º@002 Knots
11:53 Heading: 329º
11:53 Flight Duration: 01:06
11:53 Landing Weight: 33977 Lbs
11:53 POS N42º 45´ 04´´ E002º 51´ 50´´
11:57 Parking brakes on
11:57 Block to Block Duration: 01:21
11:57 Final Fuel: 11014 Lbls
11:57 Spent Fuel: 1920 Lbls
11:57 Flight Length: 309 NM
11:57 TOD Land Length: 100 NM

Exportar CSV

Powered by Drupal - Modified by Danger4k